sensor_id;sensor_type;location;lat;lon;timestamp;P1;durP1;ratioP1;P2;durP2;ratioP2
22947;SDS011;11640;52.520;13.456;2022-08-01T00:04:31;5.72;;;4.90;;
22947;SDS011;11640;52.520;13.456;2022-08-01T00:09:33;6.85;;;5.45;;
22947;SDS011;11640;52.520;13.456;2022-08-01T00:14:35;7.90;;;5.60;;
22947;SDS011;11640;52.520;13.456;2022-08-01T00:19:37;8.85;;;5.25;;
22947;SDS011;11640;52.520;13.456;2022-08-01T00:24:39;7.93;;;5.20;;
22947;SDS011;11640;52.520;13.456;2022-08-01T00:29:41;7.68;;;5.30;;
22947;SDS011;11640;52.520;13.456;2022-08-01T00:35:03;7.40;;;5.55;;
22947;SDS011;11640;52.520;13.456;2022-08-01T00:40:05;7.03;;;5.15;;
22947;SDS011;11640;52.520;13.456;2022-08-01T00:45:08;6.82;;;5.68;;
22947;SDS011;11640;52.520;13.456;2022-08-01T00:50:10;8.25;;;5.97;;
22947;SDS011;11640;52.520;13.456;2022-08-01T00:55:12;10.98;;;5.90;;
22947;SDS011;11640;52.520;13.456;2022-08-01T01:00:15;8.05;;;5.90;;
22947;SDS011;11640;52.520;13.456;2022-08-01T01:05:18;7.63;;;6.57;;
22947;SDS011;11640;52.520;13.456;2022-08-01T01:15:34;7.75;;;6.15;;
22947;SDS011;11640;52.520;13.456;2022-08-01T01:20:41;9.93;;;7.03;;
22947;SDS011;11640;52.520;13.456;2022-08-01T01:26:21;7.07;;;5.65;;
22947;SDS011;11640;52.520;13.456;2022-08-01T01:31:23;8.60;;;6.50;;
22947;SDS011;11640;52.520;13.456;2022-08-01T01:36:26;7.63;;;5.72;;
22947;SDS011;11640;52.520;13.456;2022-08-01T01:41:30;9.23;;;5.90;;
22947;SDS011;11640;52.520;13.456;2022-08-01T01:46:32;6.90;;;6.20;;
22947;SDS011;11640;52.520;13.456;2022-08-01T01:51:36;8.05;;;7.10;;
22947;SDS011;11640;52.520;13.456;2022-08-01T01:56:40;7.55;;;6.75;;
22947;SDS011;11640;52.520;13.456;2022-08-01T02:01:49;7.75;;;6.75;;
22947;SDS011;11640;52.520;13.456;2022-08-01T02:07:06;7.47;;;5.40;;
22947;SDS011;11640;52.520;13.456;2022-08-01T02:12:10;7.90;;;5.72;;
22947;SDS011;11640;52.520;13.456;2022-08-01T02:17:15;6.68;;;5.95;;
22947;SDS011;11640;52.520;13.456;2022-08-01T02:22:21;7.13;;;6.43;;
22947;SDS011;11640;52.520;13.456;2022-08-01T02:27:34;7.72;;;6.45;;
22947;SDS011;11640;52.520;13.456;2022-08-01T02:32:44;7.57;;;6.18;;
22947;SDS011;11640;52.520;13.456;2022-08-01T02:37:51;7.13;;;6.43;;
22947;SDS011;11640;52.520;13.456;2022-08-01T02:42:55;6.93;;;6.22;;
22947;SDS011;11640;52.520;13.456;2022-08-01T02:48:08;8.93;;;7.00;;
22947;SDS011;11640;52.520;13.456;2022-08-01T02:53:13;8.13;;;7.05;;
22947;SDS011;11640;52.520;13.456;2022-08-01T02:58:18;7.13;;;6.13;;
22947;SDS011;11640;52.520;13.456;2022-08-01T03:03:30;7.88;;;6.60;;
22947;SDS011;11640;52.520;13.456;2022-08-01T03:08:33;7.70;;;6.53;;
22947;SDS011;11640;52.520;13.456;2022-08-01T03:13:37;7.45;;;6.63;;
22947;SDS011;11640;52.520;13.456;2022-08-01T03:18:42;8.82;;;6.90;;
22947;SDS011;11640;52.520;13.456;2022-08-01T03:23:46;8.23;;;6.90;;
22947;SDS011;11640;52.520;13.456;2022-08-01T03:28:55;10.20;;;7.05;;
22947;SDS011;11640;52.520;13.456;2022-08-01T03:34:00;7.50;;;6.70;;
22947;SDS011;11640;52.520;13.456;2022-08-01T03:39:06;7.88;;;6.97;;
22947;SDS011;11640;52.520;13.456;2022-08-01T03:44:14;9.30;;;6.38;;
22947;SDS011;11640;52.520;13.456;2022-08-01T03:49:18;7.75;;;6.85;;
22947;SDS011;11640;52.520;13.456;2022-08-01T03:54:24;8.73;;;7.32;;
22947;SDS011;11640;52.520;13.456;2022-08-01T03:59:29;7.88;;;7.00;;
22947;SDS011;11640;52.520;13.456;2022-08-01T04:04:31;7.97;;;6.63;;
22947;SDS011;11640;52.520;13.456;2022-08-01T04:09:34;9.55;;;7.18;;
22947;SDS011;11640;52.520;13.456;2022-08-01T04:14:36;9.52;;;7.03;;
22947;SDS011;11640;52.520;13.456;2022-08-01T04:19:38;9.77;;;8.02;;
22947;SDS011;11640;52.520;13.456;2022-08-01T04:24:40;13.13;;;9.48;;
22947;SDS011;11640;52.520;13.456;2022-08-01T04:29:43;16.05;;;10.88;;
22947;SDS011;11640;52.520;13.456;2022-08-01T04:34:47;12.35;;;9.88;;
22947;SDS011;11640;52.520;13.456;2022-08-01T04:39:52;14.73;;;10.80;;
22947;SDS011;11640;52.520;13.456;2022-08-01T04:44:55;17.08;;;12.43;;
22947;SDS011;11640;52.520;13.456;2022-08-01T04:49:58;16.05;;;13.40;;
22947;SDS011;11640;52.520;13.456;2022-08-01T04:55:00;16.02;;;13.23;;
22947;SDS011;11640;52.520;13.456;2022-08-01T05:00:02;16.08;;;13.48;;
22947;SDS011;11640;52.520;13.456;2022-08-01T05:05:05;16.67;;;12.73;;
22947;SDS011;11640;52.520;13.456;2022-08-01T05:10:07;19.55;;;14.82;;
22947;SDS011;11640;52.520;13.456;2022-08-01T05:15:09;16.92;;;14.85;;
22947;SDS011;11640;52.520;13.456;2022-08-01T05:20:15;18.15;;;16.13;;
22947;SDS011;11640;52.520;13.456;2022-08-01T05:25:18;19.10;;;15.70;;
22947;SDS011;11640;52.520;13.456;2022-08-01T05:30:40;21.33;;;19.00;;
22947;SDS011;11640;52.520;13.456;2022-08-01T05:35:42;21.65;;;18.27;;
22947;SDS011;11640;52.520;13.456;2022-08-01T05:40:49;21.25;;;18.83;;
22947;SDS011;11640;52.520;13.456;2022-08-01T05:45:51;22.38;;;19.00;;
22947;SDS011;11640;52.520;13.456;2022-08-01T05:50:53;18.52;;;16.52;;
22947;SDS011;11640;52.520;13.456;2022-08-01T05:55:59;15.35;;;13.65;;
22947;SDS011;11640;52.520;13.456;2022-08-01T06:01:01;16.77;;;14.45;;
22947;SDS011;11640;52.520;13.456;2022-08-01T06:06:03;13.73;;;12.20;;
22947;SDS011;11640;52.520;13.456;2022-08-01T06:11:05;14.07;;;12.18;;
22947;SDS011;11640;52.520;13.456;2022-08-01T06:16:07;12.57;;;10.65;;
22947;SDS011;11640;52.520;13.456;2022-08-01T06:21:09;13.13;;;10.52;;
22947;SDS011;11640;52.520;13.456;2022-08-01T06:26:11;9.80;;;8.68;;
22947;SDS011;11640;52.520;13.456;2022-08-01T06:31:13;12.60;;;9.68;;
22947;SDS011;11640;52.520;13.456;2022-08-01T06:36:15;13.23;;;9.80;;
22947;SDS011;11640;52.520;13.456;2022-08-01T06:41:17;8.63;;;7.72;;
22947;SDS011;11640;52.520;13.456;2022-08-01T06:46:19;9.55;;;6.53;;
22947;SDS011;11640;52.520;13.456;2022-08-01T06:51:21;7.72;;;6.00;;
22947;SDS011;11640;52.520;13.456;2022-08-01T06:56:24;5.65;;;4.50;;
22947;SDS011;11640;52.520;13.456;2022-08-01T07:01:27;6.75;;;4.70;;
22947;SDS011;11640;52.520;13.456;2022-08-01T07:06:29;6.05;;;4.80;;
22947;SDS011;11640;52.520;13.456;2022-08-01T07:11:31;5.18;;;4.20;;
22947;SDS011;11640;52.520;13.456;2022-08-01T07:16:33;5.22;;;4.47;;
22947;SDS011;11640;52.520;13.456;2022-08-01T07:21:35;5.15;;;4.50;;
22947;SDS011;11640;52.520;13.456;2022-08-01T07:26:42;6.03;;;4.53;;
22947;SDS011;11640;52.520;13.456;2022-08-01T07:31:55;6.05;;;4.25;;
22947;SDS011;11640;52.520;13.456;2022-08-01T07:36:57;4.90;;;3.63;;
22947;SDS011;11640;52.520;13.456;2022-08-01T07:41:59;6.47;;;5.30;;
22947;SDS011;11640;52.520;13.456;2022-08-01T07:47:08;7.03;;;5.40;;
22947;SDS011;11640;52.520;13.456;2022-08-01T07:52:10;6.75;;;5.28;;
22947;SDS011;11640;52.520;13.456;2022-08-01T07:57:12;5.18;;;4.32;;
22947;SDS011;11640;52.520;13.456;2022-08-01T08:02:14;6.45;;;4.82;;
22947;SDS011;11640;52.520;13.456;2022-08-01T08:07:16;5.57;;;4.97;;
22947;SDS011;11640;52.520;13.456;2022-08-01T08:12:17;6.03;;;5.03;;
22947;SDS011;11640;52.520;13.456;2022-08-01T08:17:30;8.50;;;6.30;;
22947;SDS011;11640;52.520;13.456;2022-08-01T08:22:36;7.40;;;6.22;;
22947;SDS011;11640;52.520;13.456;2022-08-01T08:27:38;7.50;;;6.47;;
22947;SDS011;11640;52.520;13.456;2022-08-01T08:32:40;8.75;;;6.18;;
22947;SDS011;11640;52.520;13.456;2022-08-01T08:37:43;6.25;;;4.28;;
22947;SDS011;11640;52.520;13.456;2022-08-01T08:42:49;5.95;;;4.28;;
22947;SDS011;11640;52.520;13.456;2022-08-01T08:47:52;5.07;;;3.75;;
22947;SDS011;11640;52.520;13.456;2022-08-01T08:52:55;5.32;;;4.38;;
22947;SDS011;11640;52.520;13.456;2022-08-01T08:57:58;5.30;;;3.78;;
22947;SDS011;11640;52.520;13.456;2022-08-01T09:03:01;6.68;;;3.20;;
22947;SDS011;11640;52.520;13.456;2022-08-01T09:08:06;4.30;;;2.33;;
22947;SDS011;11640;52.520;13.456;2022-08-01T09:13:10;3.30;;;2.38;;
22947;SDS011;11640;52.520;13.456;2022-08-01T09:18:27;5.80;;;2.00;;
22947;SDS011;11640;52.520;13.456;2022-08-01T09:28:35;4.05;;;1.92;;
22947;SDS011;11640;52.520;13.456;2022-08-01T09:38:55;3.35;;;2.15;;
22947;SDS011;11640;52.520;13.456;2022-08-01T09:43:57;5.25;;;2.45;;
22947;SDS011;11640;52.520;13.456;2022-08-01T09:49:01;4.28;;;2.35;;
22947;SDS011;11640;52.520;13.456;2022-08-01T09:54:10;4.07;;;2.42;;
22947;SDS011;11640;52.520;13.456;2022-08-01T09:59:12;5.55;;;2.20;;
22947;SDS011;11640;52.520;13.456;2022-08-01T10:04:18;3.40;;;2.30;;
22947;SDS011;11640;52.520;13.456;2022-08-01T10:09:29;3.75;;;2.45;;
22947;SDS011;11640;52.520;13.456;2022-08-01T10:14:41;3.20;;;2.30;;
22947;SDS011;11640;52.520;13.456;2022-08-01T10:19:46;3.95;;;2.75;;
22947;SDS011;11640;52.520;13.456;2022-08-01T10:24:54;3.38;;;2.50;;
22947;SDS011;11640;52.520;13.456;2022-08-01T10:29:58;3.38;;;2.60;;
22947;SDS011;11640;52.520;13.456;2022-08-01T10:35:21;4.18;;;2.47;;
22947;SDS011;11640;52.520;13.456;2022-08-01T10:40:43;3.83;;;2.55;;
22947;SDS011;11640;52.520;13.456;2022-08-01T10:45:46;5.45;;;2.72;;
22947;SDS011;11640;52.520;13.456;2022-08-01T10:50:49;3.22;;;2.40;;
22947;SDS011;11640;52.520;13.456;2022-08-01T11:01:18;4.60;;;2.00;;
22947;SDS011;11640;52.520;13.456;2022-08-01T11:06:28;3.55;;;2.20;;
22947;SDS011;11640;52.520;13.456;2022-08-01T11:11:40;3.63;;;2.03;;
22947;SDS011;11640;52.520;13.456;2022-08-01T11:17:35;3.80;;;1.90;;
22947;SDS011;11640;52.520;13.456;2022-08-01T11:34:03;4.68;;;2.05;;
22947;SDS011;11640;52.520;13.456;2022-08-01T11:39:10;3.42;;;1.85;;
22947;SDS011;11640;52.520;13.456;2022-08-01T11:44:18;4.22;;;2.17;;
22947;SDS011;11640;52.520;13.456;2022-08-01T11:54:53;3.53;;;1.60;;
22947;SDS011;11640;52.520;13.456;2022-08-01T11:59:58;2.55;;;1.60;;
22947;SDS011;11640;52.520;13.456;2022-08-01T12:05:24;7.63;;;5.15;;
22947;SDS011;11640;52.520;13.456;2022-08-01T12:10:29;3.65;;;1.70;;
22947;SDS011;11640;52.520;13.456;2022-08-01T12:15:50;2.67;;;1.40;;
22947;SDS011;11640;52.520;13.456;2022-08-01T12:21:00;2.78;;;1.40;;
22947;SDS011;11640;52.520;13.456;2022-08-01T12:26:05;3.33;;;1.52;;
22947;SDS011;11640;52.520;13.456;2022-08-01T12:31:07;2.75;;;1.23;;
22947;SDS011;11640;52.520;13.456;2022-08-01T12:36:09;2.33;;;1.35;;
22947;SDS011;11640;52.520;13.456;2022-08-01T12:41:15;3.20;;;1.75;;
22947;SDS011;11640;52.520;13.456;2022-08-01T12:46:17;2.83;;;1.40;;
22947;SDS011;11640;52.520;13.456;2022-08-01T12:51:19;2.88;;;1.70;;
22947;SDS011;11640;52.520;13.456;2022-08-01T12:56:22;3.90;;;1.73;;
22947;SDS011;11640;52.520;13.456;2022-08-01T13:01:33;3.20;;;1.63;;
22947;SDS011;11640;52.520;13.456;2022-08-01T13:06:35;5.28;;;2.08;;
22947;SDS011;11640;52.520;13.456;2022-08-01T13:11:37;3.83;;;2.03;;
22947;SDS011;11640;52.520;13.456;2022-08-01T13:16:59;3.03;;;1.77;;
22947;SDS011;11640;52.520;13.456;2022-08-01T13:22:01;4.10;;;2.15;;
22947;SDS011;11640;52.520;13.456;2022-08-01T13:27:03;3.38;;;1.83;;
22947;SDS011;11640;52.520;13.456;2022-08-01T13:32:19;3.95;;;1.88;;
22947;SDS011;11640;52.520;13.456;2022-08-01T13:37:31;4.55;;;2.42;;
22947;SDS011;11640;52.520;13.456;2022-08-01T13:42:33;3.42;;;1.80;;
22947;SDS011;11640;52.520;13.456;2022-08-01T13:47:35;2.63;;;1.70;;
22947;SDS011;11640;52.520;13.456;2022-08-01T13:52:38;3.05;;;1.55;;
22947;SDS011;11640;52.520;13.456;2022-08-01T13:57:39;3.70;;;1.60;;
22947;SDS011;11640;52.520;13.456;2022-08-01T14:02:41;5.18;;;3.90;;
22947;SDS011;11640;52.520;13.456;2022-08-01T14:07:43;4.57;;;2.30;;
22947;SDS011;11640;52.520;13.456;2022-08-01T14:12:48;5.18;;;2.78;;
22947;SDS011;11640;52.520;13.456;2022-08-01T14:17:51;3.65;;;2.53;;
22947;SDS011;11640;52.520;13.456;2022-08-01T14:22:53;4.63;;;2.42;;
22947;SDS011;11640;52.520;13.456;2022-08-01T14:27:55;5.15;;;3.10;;
22947;SDS011;11640;52.520;13.456;2022-08-01T14:32:57;3.85;;;2.53;;
22947;SDS011;11640;52.520;13.456;2022-08-01T14:37:59;6.15;;;2.30;;
22947;SDS011;11640;52.520;13.456;2022-08-01T14:43:00;4.63;;;2.03;;
22947;SDS011;11640;52.520;13.456;2022-08-01T14:48:02;4.05;;;1.80;;
22947;SDS011;11640;52.520;13.456;2022-08-01T14:53:04;2.17;;;1.50;;
22947;SDS011;11640;52.520;13.456;2022-08-01T14:58:06;2.30;;;1.42;;
22947;SDS011;11640;52.520;13.456;2022-08-01T15:03:08;4.75;;;3.13;;
22947;SDS011;11640;52.520;13.456;2022-08-01T15:08:10;5.07;;;2.05;;
22947;SDS011;11640;52.520;13.456;2022-08-01T15:13:12;5.63;;;2.42;;
22947;SDS011;11640;52.520;13.456;2022-08-01T15:18:15;4.88;;;3.35;;
22947;SDS011;11640;52.520;13.456;2022-08-01T15:23:17;4.85;;;2.40;;
22947;SDS011;11640;52.520;13.456;2022-08-01T15:28:19;3.75;;;2.97;;
22947;SDS011;11640;52.520;13.456;2022-08-01T15:33:21;3.50;;;1.70;;
22947;SDS011;11640;52.520;13.456;2022-08-01T15:38:23;2.80;;;1.58;;
22947;SDS011;11640;52.520;13.456;2022-08-01T15:43:24;2.33;;;1.30;;
22947;SDS011;11640;52.520;13.456;2022-08-01T15:48:28;3.03;;;1.30;;
22947;SDS011;11640;52.520;13.456;2022-08-01T15:53:29;2.88;;;1.40;;
22947;SDS011;11640;52.520;13.456;2022-08-01T15:58:31;3.22;;;1.60;;
22947;SDS011;11640;52.520;13.456;2022-08-01T16:03:34;2.53;;;1.30;;
22947;SDS011;11640;52.520;13.456;2022-08-01T16:08:35;5.00;;;2.15;;
22947;SDS011;11640;52.520;13.456;2022-08-01T16:13:38;5.15;;;2.70;;
22947;SDS011;11640;52.520;13.456;2022-08-01T16:18:39;2.53;;;1.42;;
22947;SDS011;11640;52.520;13.456;2022-08-01T16:23:41;2.75;;;1.50;;
22947;SDS011;11640;52.520;13.456;2022-08-01T16:28:44;3.70;;;1.90;;
22947;SDS011;11640;52.520;13.456;2022-08-01T16:33:49;2.83;;;1.30;;
22947;SDS011;11640;52.520;13.456;2022-08-01T16:38:59;3.50;;;1.52;;
22947;SDS011;11640;52.520;13.456;2022-08-01T16:44:05;2.40;;;1.33;;
22947;SDS011;11640;52.520;13.456;2022-08-01T16:49:10;3.28;;;1.40;;
22947;SDS011;11640;52.520;13.456;2022-08-01T16:54:17;3.67;;;1.50;;
22947;SDS011;11640;52.520;13.456;2022-08-01T16:59:27;4.47;;;2.45;;
22947;SDS011;11640;52.520;13.456;2022-08-01T17:04:35;3.17;;;1.52;;
22947;SDS011;11640;52.520;13.456;2022-08-01T17:09:40;3.13;;;1.38;;
22947;SDS011;11640;52.520;13.456;2022-08-01T17:14:47;4.45;;;2.10;;
22947;SDS011;11640;52.520;13.456;2022-08-01T17:19:50;2.63;;;1.35;;
22947;SDS011;11640;52.520;13.456;2022-08-01T17:24:52;4.45;;;1.88;;
22947;SDS011;11640;52.520;13.456;2022-08-01T17:29:54;3.17;;;1.63;;
22947;SDS011;11640;52.520;13.456;2022-08-01T17:34:56;5.20;;;1.70;;
22947;SDS011;11640;52.520;13.456;2022-08-01T17:39:57;4.65;;;1.50;;
22947;SDS011;11640;52.520;13.456;2022-08-01T17:44:59;3.22;;;1.42;;
22947;SDS011;11640;52.520;13.456;2022-08-01T17:50:04;2.83;;;1.80;;
22947;SDS011;11640;52.520;13.456;2022-08-01T17:55:07;5.03;;;1.70;;
22947;SDS011;11640;52.520;13.456;2022-08-01T18:00:30;3.55;;;1.80;;
22947;SDS011;11640;52.520;13.456;2022-08-01T18:05:32;2.65;;;1.38;;
22947;SDS011;11640;52.520;13.456;2022-08-01T18:10:37;2.90;;;1.60;;
22947;SDS011;11640;52.520;13.456;2022-08-01T18:15:40;2.70;;;1.40;;
22947;SDS011;11640;52.520;13.456;2022-08-01T18:20:42;3.55;;;1.80;;
22947;SDS011;11640;52.520;13.456;2022-08-01T18:25:44;3.92;;;2.00;;
22947;SDS011;11640;52.520;13.456;2022-08-01T18:30:46;4.47;;;1.60;;
22947;SDS011;11640;52.520;13.456;2022-08-01T18:35:48;5.18;;;1.80;;
22947;SDS011;11640;52.520;13.456;2022-08-01T18:40:53;4.22;;;1.85;;
22947;SDS011;11640;52.520;13.456;2022-08-01T18:45:55;3.28;;;2.00;;
22947;SDS011;11640;52.520;13.456;2022-08-01T18:50:57;3.25;;;2.00;;
22947;SDS011;11640;52.520;13.456;2022-08-01T18:56:00;4.90;;;1.95;;
22947;SDS011;11640;52.520;13.456;2022-08-01T19:01:07;3.15;;;1.23;;
22947;SDS011;11640;52.520;13.456;2022-08-01T19:06:09;3.10;;;1.35;;
22947;SDS011;11640;52.520;13.456;2022-08-01T19:11:11;3.53;;;1.30;;
22947;SDS011;11640;52.520;13.456;2022-08-01T19:16:13;3.30;;;1.27;;
22947;SDS011;11640;52.520;13.456;2022-08-01T19:21:16;3.33;;;1.50;;
22947;SDS011;11640;52.520;13.456;2022-08-01T19:26:19;2.70;;;1.15;;
22947;SDS011;11640;52.520;13.456;2022-08-01T19:31:24;3.63;;;1.10;;
22947;SDS011;11640;52.520;13.456;2022-08-01T19:36:27;2.72;;;1.27;;
22947;SDS011;11640;52.520;13.456;2022-08-01T19:41:30;4.10;;;1.40;;
22947;SDS011;11640;52.520;13.456;2022-08-01T19:46:33;4.57;;;1.60;;
22947;SDS011;11640;52.520;13.456;2022-08-01T19:51:35;4.90;;;2.00;;
22947;SDS011;11640;52.520;13.456;2022-08-01T19:56:42;3.90;;;1.65;;
22947;SDS011;11640;52.520;13.456;2022-08-01T20:01:47;4.47;;;1.80;;
22947;SDS011;11640;52.520;13.456;2022-08-01T20:06:50;4.07;;;1.70;;
22947;SDS011;11640;52.520;13.456;2022-08-01T20:11:52;5.53;;;3.08;;
22947;SDS011;11640;52.520;13.456;2022-08-01T20:16:55;5.38;;;2.08;;
22947;SDS011;11640;52.520;13.456;2022-08-01T20:21:58;5.32;;;2.08;;
22947;SDS011;11640;52.520;13.456;2022-08-01T20:27:05;3.65;;;1.77;;
22947;SDS011;11640;52.520;13.456;2022-08-01T20:32:09;3.78;;;1.60;;
22947;SDS011;11640;52.520;13.456;2022-08-01T20:37:12;3.42;;;1.63;;
22947;SDS011;11640;52.520;13.456;2022-08-01T20:42:37;4.45;;;1.55;;
22947;SDS011;11640;52.520;13.456;2022-08-01T20:47:40;4.22;;;1.58;;
22947;SDS011;11640;52.520;13.456;2022-08-01T20:52:45;4.95;;;1.73;;
22947;SDS011;11640;52.520;13.456;2022-08-01T20:57:49;4.88;;;2.08;;
22947;SDS011;11640;52.520;13.456;2022-08-01T21:02:55;3.72;;;1.58;;
22947;SDS011;11640;52.520;13.456;2022-08-01T21:08:03;5.13;;;1.90;;
22947;SDS011;11640;52.520;13.456;2022-08-01T21:13:19;3.97;;;2.20;;
22947;SDS011;11640;52.520;13.456;2022-08-01T21:18:36;4.97;;;2.42;;
22947;SDS011;11640;52.520;13.456;2022-08-01T21:23:42;6.03;;;2.42;;
22947;SDS011;11640;52.520;13.456;2022-08-01T21:28:47;5.80;;;2.10;;
22947;SDS011;11640;52.520;13.456;2022-08-01T21:33:54;3.83;;;1.80;;
22947;SDS011;11640;52.520;13.456;2022-08-01T21:44:06;5.53;;;2.40;;
22947;SDS011;11640;52.520;13.456;2022-08-01T21:49:14;4.88;;;2.13;;
22947;SDS011;11640;52.520;13.456;2022-08-01T21:54:19;4.97;;;2.20;;
22947;SDS011;11640;52.520;13.456;2022-08-01T22:05:02;5.28;;;2.22;;
22947;SDS011;11640;52.520;13.456;2022-08-01T22:10:06;4.50;;;2.20;;
22947;SDS011;11640;52.520;13.456;2022-08-01T22:15:10;6.63;;;2.13;;
22947;SDS011;11640;52.520;13.456;2022-08-01T22:20:12;5.88;;;2.45;;
22947;SDS011;11640;52.520;13.456;2022-08-01T22:25:16;5.50;;;2.75;;
22947;SDS011;11640;52.520;13.456;2022-08-01T22:30:18;4.72;;;2.35;;
22947;SDS011;11640;52.520;13.456;2022-08-01T22:35:20;5.47;;;2.80;;
22947;SDS011;11640;52.520;13.456;2022-08-01T22:40:22;5.03;;;2.33;;
22947;SDS011;11640;52.520;13.456;2022-08-01T22:45:26;7.32;;;2.80;;
22947;SDS011;11640;52.520;13.456;2022-08-01T22:50:37;5.88;;;3.05;;
22947;SDS011;11640;52.520;13.456;2022-08-01T22:55:44;6.90;;;4.07;;
22947;SDS011;11640;52.520;13.456;2022-08-01T23:01:00;6.50;;;3.13;;
22947;SDS011;11640;52.520;13.456;2022-08-01T23:11:10;5.88;;;3.10;;
22947;SDS011;11640;52.520;13.456;2022-08-01T23:16:12;6.10;;;2.72;;
22947;SDS011;11640;52.520;13.456;2022-08-01T23:21:17;5.30;;;2.60;;
22947;SDS011;11640;52.520;13.456;2022-08-01T23:26:21;7.70;;;3.08;;
22947;SDS011;11640;52.520;13.456;2022-08-01T23:31:24;4.70;;;2.70;;
22947;SDS011;11640;52.520;13.456;2022-08-01T23:36:47;5.43;;;2.88;;
22947;SDS011;11640;52.520;13.456;2022-08-01T23:41:48;4.47;;;2.92;;
22947;SDS011;11640;52.520;13.456;2022-08-01T23:47:08;4.60;;;2.97;;
22947;SDS011;11640;52.520;13.456;2022-08-01T23:52:14;6.35;;;3.08;;
22947;SDS011;11640;52.520;13.456;2022-08-01T23:57:21;6.32;;;2.50;;
